createdAt,value
2023-02-03T00:00:08.773Z,1.60
2023-02-03T00:02:37.453Z,1.65
2023-02-03T00:05:06.347Z,1.85
2023-02-03T00:07:36.170Z,1.95
2023-02-03T00:10:05.203Z,1.88
2023-02-03T00:12:33.754Z,1.48
2023-02-03T00:15:01.943Z,2.00
2023-02-03T00:17:31.569Z,1.92
2023-02-03T00:19:59.755Z,1.35
2023-02-03T00:22:27.974Z,1.90
2023-02-03T00:24:56.173Z,1.65
2023-02-03T00:27:24.392Z,1.95
2023-02-03T00:29:52.622Z,2.08
2023-02-03T00:32:20.934Z,1.60
2023-02-03T00:34:50.613Z,2.15
2023-02-03T00:37:18.887Z,1.70
2023-02-03T00:39:47.179Z,1.98
2023-02-03T00:42:15.478Z,1.95
2023-02-03T00:44:43.786Z,2.00
2023-02-03T00:47:11.998Z,2.55
2023-02-03T00:49:40.197Z,2.30
2023-02-03T00:52:09.820Z,2.25
2023-02-03T00:54:38.035Z,2.85
2023-02-03T00:57:06.262Z,2.05
2023-02-03T00:59:34.454Z,2.05
2023-02-03T01:02:02.805Z,2.20
2023-02-03T01:04:31.079Z,2.03
2023-02-03T01:07:00.062Z,2.47
2023-02-03T01:09:29.728Z,2.10
2023-02-03T01:11:57.930Z,2.38
2023-02-03T01:14:26.170Z,2.10
2023-02-03T01:16:54.579Z,2.17
2023-02-03T01:19:22.890Z,1.92
2023-02-03T01:21:51.089Z,1.63
2023-02-03T01:24:19.334Z,1.73
2023-02-03T01:26:48.973Z,1.60
2023-02-03T01:29:17.187Z,1.63
2023-02-03T01:31:45.558Z,1.70
2023-02-03T01:34:16.429Z,1.63
2023-02-03T01:36:44.721Z,1.70
2023-02-03T01:39:13.380Z,1.60
2023-02-03T01:41:42.195Z,1.70
2023-02-03T01:44:45.085Z,1.60
2023-02-03T01:47:19.716Z,1.67
2023-02-03T01:49:53.263Z,2.00
2023-02-03T01:52:21.535Z,1.40
2023-02-03T01:54:53.286Z,1.90
2023-02-03T01:59:55.368Z,1.60
2023-02-03T02:02:24.236Z,1.80
2023-02-03T02:04:57.941Z,1.92
2023-02-03T02:07:26.499Z,1.80
2023-02-03T02:09:56.045Z,1.90
2023-02-03T02:12:24.296Z,2.00
2023-02-03T02:14:54.156Z,2.50
2023-02-03T02:17:44.745Z,2.42
2023-02-03T02:20:34.006Z,2.13
2023-02-03T02:23:25.519Z,2.03
2023-02-03T02:26:30.857Z,1.88
2023-02-03T02:29:40.404Z,2.08
2023-02-03T02:32:20.054Z,1.63
2023-02-03T02:34:55.808Z,1.85
2023-02-03T02:37:32.478Z,1.90
2023-02-03T02:40:11.419Z,2.10
2023-02-03T02:42:52.521Z,1.77
2023-02-03T02:45:26.546Z,2.30
2023-02-03T02:48:01.149Z,2.30
2023-02-03T02:50:35.976Z,2.67
2023-02-03T02:53:06.051Z,2.28
2023-02-03T02:55:36.976Z,2.45
2023-02-03T02:58:07.943Z,2.50
2023-02-03T03:00:38.216Z,2.25
2023-02-03T03:03:16.059Z,2.97
2023-02-03T03:05:47.650Z,2.10
2023-02-03T03:08:17.825Z,2.45
2023-02-03T03:10:46.892Z,2.47
2023-02-03T03:13:21.820Z,2.50
2023-02-03T03:15:51.867Z,2.22
2023-02-03T03:18:24.580Z,2.03
2023-02-03T03:20:54.803Z,2.33
2023-02-03T03:23:28.626Z,2.00
2023-02-03T03:26:03.871Z,2.38
2023-02-03T03:28:37.187Z,1.85
2023-02-03T03:31:05.953Z,1.70
2023-02-03T03:33:35.672Z,2.00
2023-02-03T03:36:11.183Z,2.03
2023-02-03T03:38:44.539Z,2.10
2023-02-03T03:41:21.275Z,1.85
2023-02-03T03:43:53.755Z,2.08
2023-02-03T03:46:27.039Z,2.15
2023-02-03T03:49:00.282Z,2.20
2023-02-03T03:51:32.423Z,2.05
2023-02-03T03:54:06.201Z,2.10
2023-02-03T03:56:38.518Z,1.80
2023-02-03T03:59:11.091Z,2.15
2023-02-03T04:01:40.905Z,2.38
2023-02-03T04:04:12.396Z,1.90
2023-02-03T04:06:41.099Z,1.63
2023-02-03T04:09:09.656Z,1.90
2023-02-03T04:11:55.294Z,1.85
2023-02-03T04:14:23.529Z,2.20
2023-02-03T04:16:51.709Z,1.92
2023-02-03T04:19:21.305Z,1.70
2023-02-03T04:21:49.537Z,1.83
2023-02-03T04:24:17.789Z,1.95
2023-02-03T04:26:45.985Z,1.90
2023-02-03T04:29:14.163Z,1.92
2023-02-03T04:31:42.454Z,2.10
2023-02-03T04:34:10.710Z,2.00
2023-02-03T04:36:40.352Z,1.75
2023-02-03T04:39:08.594Z,1.98
2023-02-03T04:41:36.822Z,2.00
2023-02-03T04:44:05.149Z,1.75
2023-02-03T04:46:33.381Z,1.98
2023-02-03T04:49:01.665Z,1.85
2023-02-03T04:51:29.855Z,1.55
2023-02-03T04:53:59.440Z,1.77
2023-02-03T04:56:27.700Z,1.52
2023-02-03T04:58:55.892Z,1.60
2023-02-03T05:01:24.132Z,1.80
2023-02-03T05:03:52.346Z,1.50
2023-02-03T05:06:25.691Z,1.60
2023-02-03T05:08:53.954Z,1.60
2023-02-03T05:11:24.047Z,1.55
2023-02-03T05:13:52.732Z,1.77
2023-02-03T05:16:21.043Z,1.85
2023-02-03T05:18:49.511Z,2.22
2023-02-03T05:21:17.751Z,2.00
2023-02-03T05:23:45.957Z,1.67
2023-02-03T05:26:14.243Z,1.80
2023-02-03T05:28:43.844Z,1.90
2023-02-03T05:31:12.104Z,1.40
2023-02-03T05:33:40.359Z,1.60
2023-02-03T05:36:09.524Z,1.70
2023-02-03T05:38:37.745Z,2.13
2023-02-03T05:41:23.766Z,2.15
2023-02-03T05:43:53.973Z,2.10
2023-02-03T05:46:22.254Z,1.40
2023-02-03T05:48:50.470Z,1.80
2023-02-03T05:51:18.744Z,2.00
2023-02-03T05:53:46.967Z,2.20
2023-02-03T05:56:15.149Z,2.00
2023-02-03T05:58:43.377Z,2.03
2023-02-03T06:01:12.978Z,1.85
2023-02-03T06:03:41.985Z,1.98
2023-02-03T06:06:10.927Z,2.40
2023-02-03T06:08:39.161Z,2.42
2023-02-03T06:11:07.385Z,2.30
2023-02-03T06:13:35.628Z,2.40
2023-02-03T06:16:03.951Z,2.70
2023-02-03T06:18:33.613Z,2.20
2023-02-03T06:21:01.906Z,2.03
2023-02-03T06:23:31.117Z,2.00
2023-02-03T06:26:00.367Z,2.45
2023-02-03T06:28:28.900Z,3.67
2023-02-03T06:30:57.147Z,2.42
2023-02-03T06:33:25.443Z,2.30
2023-02-03T06:35:55.457Z,2.05
2023-02-03T06:38:23.710Z,2.50
2023-02-03T06:40:52.332Z,2.03
2023-02-03T06:43:20.533Z,2.70
2023-02-03T06:45:49.158Z,2.80
2023-02-03T06:48:17.665Z,2.60
2023-02-03T06:50:48.637Z,2.70
2023-02-03T06:53:18.476Z,2.10
2023-02-03T06:55:47.958Z,2.35
2023-02-03T06:58:16.368Z,2.25
2023-02-03T07:00:44.797Z,2.17
2023-02-03T07:03:12.980Z,2.35
2023-02-03T07:05:41.149Z,2.33
2023-02-03T07:08:09.525Z,2.80
2023-02-03T07:10:39.137Z,9.35
2023-02-03T07:13:08.421Z,6.13
2023-02-03T07:15:36.721Z,2.88
2023-02-03T07:18:05.201Z,3.25
2023-02-03T07:20:33.611Z,3.42
2023-02-03T07:23:01.808Z,4.05
2023-02-03T07:25:30.125Z,4.60
2023-02-03T07:27:59.740Z,3.38
2023-02-03T07:30:28.296Z,7.88
2023-02-03T07:32:56.718Z,9.48
2023-02-03T07:35:25.539Z,9.50
2023-02-03T07:37:53.788Z,6.53
2023-02-03T07:40:22.256Z,3.67
2023-02-03T07:42:51.085Z,3.63
2023-02-03T07:45:22.214Z,4.85
2023-02-03T07:47:50.469Z,2.97
2023-02-03T07:50:19.129Z,2.50
2023-02-03T07:52:47.386Z,2.53
2023-02-03T07:55:15.558Z,2.47
2023-02-03T07:57:44.772Z,2.47
2023-02-03T08:00:14.481Z,2.33
2023-02-03T08:02:44.345Z,2.10
2023-02-03T08:05:13.281Z,2.17
2023-02-03T08:07:41.750Z,2.13
2023-02-03T08:10:12.173Z,2.28
2023-02-03T08:12:43.313Z,2.50
2023-02-03T08:15:12.797Z,2.00
2023-02-03T08:17:42.157Z,1.95
2023-02-03T08:20:13.215Z,2.13
2023-02-03T08:22:41.437Z,2.53
2023-02-03T08:25:10.214Z,2.88
2023-02-03T08:27:38.842Z,2.85
2023-02-03T08:30:08.933Z,1.73
2023-02-03T08:32:37.356Z,1.80
2023-02-03T08:35:06.761Z,2.20
2023-02-03T08:37:36.429Z,2.20
2023-02-03T08:40:05.150Z,2.17
2023-02-03T08:42:33.465Z,2.40
2023-02-03T08:45:03.997Z,1.95
2023-02-03T08:47:33.255Z,2.20
2023-02-03T08:50:01.495Z,2.47
2023-02-03T08:52:29.764Z,2.30
2023-02-03T08:54:59.324Z,1.80
2023-02-03T08:57:27.547Z,1.63
2023-02-03T08:59:55.736Z,1.88
2023-02-03T09:02:24.832Z,2.15
2023-02-03T09:04:53.100Z,2.03
2023-02-03T09:07:21.380Z,1.67
2023-02-03T09:09:49.625Z,2.10
2023-02-03T09:12:19.364Z,1.83
2023-02-03T09:14:47.631Z,2.20
2023-02-03T09:17:15.974Z,2.10
2023-02-03T09:19:45.214Z,1.80
2023-02-03T09:22:13.666Z,1.83
2023-02-03T09:24:42.051Z,1.50
2023-02-03T09:27:10.293Z,1.85
2023-02-03T09:29:39.966Z,1.65
2023-02-03T09:32:10.390Z,1.58
2023-02-03T09:34:39.841Z,1.48
2023-02-03T09:37:08.323Z,1.98
2023-02-03T09:39:36.511Z,1.65
2023-02-03T09:42:29.150Z,2.08
2023-02-03T09:45:11.659Z,1.15
2023-02-03T09:47:43.737Z,1.27
2023-02-03T09:50:15.807Z,1.45
2023-02-03T09:52:45.352Z,1.75
2023-02-03T09:55:25.586Z,1.58
2023-02-03T09:57:57.258Z,1.88
2023-02-03T10:03:01.886Z,1.42
2023-02-03T10:05:44.213Z,1.55
2023-02-03T10:08:23.934Z,1.65
2023-02-03T10:11:09.863Z,2.00
2023-02-03T10:13:49.952Z,2.22
2023-02-03T10:16:38.904Z,2.20
2023-02-03T10:19:12.599Z,1.60
2023-02-03T10:21:43.981Z,1.67
2023-02-03T10:24:18.395Z,1.80
2023-02-03T10:26:47.102Z,1.50
2023-02-03T10:29:21.369Z,1.40
2023-02-03T10:31:51.078Z,2.03
2023-02-03T10:34:20.704Z,1.45
2023-02-03T10:36:56.196Z,1.52
2023-02-03T10:39:33.303Z,1.30
2023-02-03T10:42:02.417Z,1.33
2023-02-03T10:44:38.042Z,1.45
2023-02-03T10:47:24.370Z,1.50
2023-02-03T10:49:54.402Z,1.45
2023-02-03T10:52:31.741Z,1.38
2023-02-03T10:55:00.612Z,1.30
2023-02-03T10:57:31.117Z,1.08
2023-02-03T11:00:22.592Z,1.10
2023-02-03T11:03:00.147Z,1.27
2023-02-03T11:05:28.485Z,1.02
2023-02-03T11:07:56.902Z,1.08
2023-02-03T11:10:35.875Z,1.35
2023-02-03T11:13:28.296Z,1.25
2023-02-03T11:15:59.734Z,0.90
2023-02-03T11:21:08.895Z,1.60
2023-02-03T11:23:37.786Z,1.40
2023-02-03T11:26:14.854Z,1.58
2023-02-03T11:28:45.886Z,1.00
2023-02-03T11:31:21.222Z,0.90
2023-02-03T11:33:55.380Z,1.30
2023-02-03T11:36:23.847Z,1.30
2023-02-03T11:38:52.064Z,1.83
2023-02-03T11:41:23.976Z,1.70
2023-02-03T11:43:57.945Z,1.33
2023-02-03T11:46:26.322Z,1.42
2023-02-03T11:49:05.443Z,1.10
2023-02-03T11:51:44.517Z,1.70
2023-02-03T11:54:24.092Z,1.20
2023-02-03T11:57:13.901Z,1.10
2023-02-03T11:59:57.792Z,1.50
2023-02-03T12:03:02.372Z,1.40
2023-02-03T12:06:02.907Z,1.23
2023-02-03T12:08:55.425Z,0.98
2023-02-03T12:11:37.761Z,0.90
2023-02-03T12:14:28.862Z,1.50
2023-02-03T12:17:31.775Z,1.15
2023-02-03T12:20:13.774Z,1.10
2023-02-03T12:22:49.353Z,1.33
2023-02-03T12:25:33.022Z,1.05
2023-02-03T12:28:27.373Z,0.90
2023-02-03T12:31:05.962Z,0.90
2023-02-03T12:33:39.518Z,1.20
2023-02-03T12:36:11.565Z,0.98
2023-02-03T12:38:45.341Z,1.00
2023-02-03T12:41:18.400Z,1.38
2023-02-03T12:43:49.495Z,1.20
2023-02-03T12:46:20.859Z,1.20
2023-02-03T12:48:54.974Z,1.02
2023-02-03T12:51:34.499Z,1.00
2023-02-03T12:54:08.731Z,1.20
2023-02-03T12:56:42.329Z,1.30
2023-02-03T12:59:16.789Z,1.13
2023-02-03T13:01:50.792Z,1.10
2023-02-03T13:04:29.720Z,1.05
2023-02-03T13:07:05.451Z,1.13
2023-02-03T13:09:39.910Z,1.00
2023-02-03T13:12:15.123Z,1.40
2023-02-03T13:14:48.019Z,1.02
2023-02-03T13:17:20.593Z,1.30
2023-02-03T13:19:52.107Z,1.13
2023-02-03T13:22:23.850Z,1.35
2023-02-03T13:24:57.962Z,1.23
2023-02-03T13:27:47.179Z,1.00
2023-02-03T13:30:36.540Z,0.90
2023-02-03T13:33:52.474Z,1.20
2023-02-03T13:36:55.063Z,1.45
2023-02-03T13:39:44.536Z,1.35
2023-02-03T13:42:25.814Z,1.10
2023-02-03T13:44:59.876Z,1.15
2023-02-03T13:47:30.498Z,1.10
2023-02-03T13:50:02.852Z,1.30
2023-02-03T13:52:36.689Z,1.00
2023-02-03T13:55:06.012Z,1.20
2023-02-03T13:57:37.206Z,1.13
2023-02-03T14:00:29.396Z,1.10
2023-02-03T14:02:59.160Z,1.23
2023-02-03T14:05:42.288Z,1.10
2023-02-03T14:08:53.262Z,1.10
2023-02-03T14:11:46.000Z,1.23
2023-02-03T14:14:42.694Z,0.88
2023-02-03T14:18:04.320Z,0.60
2023-02-03T14:20:43.398Z,0.60
2023-02-03T14:23:17.675Z,0.68
2023-02-03T14:25:49.363Z,0.60
2023-02-03T14:28:20.049Z,0.45
2023-02-03T14:31:07.139Z,0.60
2023-02-03T14:33:57.355Z,0.60
2023-02-03T14:36:41.137Z,0.50
2023-02-03T14:39:48.748Z,0.77
2023-02-03T14:42:24.159Z,0.68
2023-02-03T14:45:04.615Z,0.60
2023-02-03T14:47:50.987Z,0.90
2023-02-03T14:50:30.189Z,0.75
2023-02-03T14:53:22.007Z,1.05
2023-02-03T14:56:00.342Z,0.70
2023-02-03T14:58:34.242Z,0.65
2023-02-03T15:01:05.591Z,0.65
2023-02-03T15:03:35.176Z,0.73
2023-02-03T15:06:05.330Z,0.60
2023-02-03T15:08:46.127Z,0.55
2023-02-03T15:11:29.994Z,0.90
2023-02-03T15:14:15.105Z,0.80
2023-02-03T15:16:45.436Z,0.90
2023-02-03T15:19:18.738Z,0.82
2023-02-03T15:21:47.399Z,0.80
2023-02-03T15:24:21.471Z,0.75
2023-02-03T15:26:52.027Z,0.60
2023-02-03T15:29:27.454Z,0.70
2023-02-03T15:32:03.005Z,0.88
2023-02-03T15:34:36.643Z,0.70
2023-02-03T15:37:09.367Z,0.57
2023-02-03T15:39:47.377Z,0.90
2023-02-03T15:42:22.550Z,0.88
2023-02-03T15:44:57.298Z,0.70
2023-02-03T15:47:32.605Z,0.85
2023-02-03T15:50:16.933Z,0.70
2023-02-03T15:52:47.116Z,0.75
2023-02-03T15:55:25.259Z,0.90
2023-02-03T15:57:53.920Z,0.70
2023-02-03T16:00:39.407Z,1.10
2023-02-03T16:03:19.637Z,0.70
2023-02-03T16:05:50.355Z,0.95
2023-02-03T16:08:29.972Z,0.93
2023-02-03T16:10:59.771Z,1.02
2023-02-03T16:13:30.840Z,1.00
2023-02-03T16:16:03.208Z,0.85
2023-02-03T16:18:31.485Z,0.80
2023-02-03T16:20:59.736Z,0.90
2023-02-03T16:23:29.861Z,1.35
2023-02-03T16:26:24.937Z,1.50
2023-02-03T16:29:32.887Z,1.30
2023-02-03T16:32:19.304Z,1.38
2023-02-03T16:35:05.143Z,1.30
2023-02-03T16:37:52.841Z,1.15
2023-02-03T16:40:40.922Z,1.20
2023-02-03T16:43:31.582Z,1.38
2023-02-03T16:46:18.666Z,1.38
2023-02-03T16:49:05.018Z,1.20
2023-02-03T16:51:40.211Z,1.10
2023-02-03T16:54:11.061Z,1.00
2023-02-03T16:56:39.260Z,1.67
2023-02-03T16:59:09.363Z,1.73
2023-02-03T17:01:37.893Z,1.90
2023-02-03T17:04:06.269Z,1.67
2023-02-03T17:06:34.758Z,1.70
2023-02-03T17:09:02.988Z,2.08
2023-02-03T17:11:31.270Z,1.98
2023-02-03T17:13:59.687Z,2.03
2023-02-03T17:16:30.510Z,2.08
2023-02-03T17:18:58.780Z,1.80
2023-02-03T17:21:29.417Z,1.42
2023-02-03T17:23:59.502Z,1.90
2023-02-03T17:26:27.713Z,2.20
2023-02-03T17:28:56.041Z,2.00
2023-02-03T17:31:24.353Z,1.70
2023-02-03T17:33:54.078Z,1.50
2023-02-03T17:36:23.357Z,1.48
2023-02-03T17:55:31.757Z,0.85
2023-02-03T17:58:00.162Z,1.10
2023-02-03T18:00:29.019Z,1.20
2023-02-03T18:02:57.783Z,1.23
2023-02-03T18:05:28.841Z,1.25
2023-02-03T18:07:57.896Z,1.70
2023-02-03T18:10:26.230Z,1.40
2023-02-03T18:12:54.435Z,1.30
2023-02-03T18:15:22.613Z,1.55
2023-02-03T18:17:50.823Z,1.08
2023-02-03T18:20:19.383Z,1.20
2023-02-03T18:22:49.000Z,1.33
2023-02-03T18:25:18.514Z,1.63
2023-02-03T18:27:46.920Z,1.52
2023-02-03T18:30:17.995Z,1.23
2023-02-03T18:32:47.186Z,1.17
2023-02-03T18:35:17.285Z,0.90
2023-02-03T18:37:45.597Z,1.10
2023-02-03T18:40:15.223Z,1.00
2023-02-03T18:42:43.499Z,0.95
2023-02-03T18:45:12.696Z,1.20
2023-02-03T18:47:41.092Z,1.05
2023-02-03T18:50:09.958Z,1.00
2023-02-03T18:52:38.261Z,0.90
2023-02-03T18:55:06.991Z,1.00
2023-02-03T18:57:36.648Z,0.88
2023-02-03T19:00:05.746Z,1.10
2023-02-03T19:02:34.680Z,1.20
2023-02-03T19:05:02.946Z,1.05
2023-02-03T19:07:31.155Z,0.80
2023-02-03T19:09:59.426Z,0.85
2023-02-03T19:12:27.734Z,0.90
2023-02-03T19:14:57.369Z,0.90
2023-02-03T19:17:26.168Z,0.98
2023-02-03T19:19:54.427Z,0.85
2023-02-03T19:22:22.695Z,1.10
2023-02-03T19:24:50.871Z,1.20
2023-02-03T19:27:19.098Z,0.82
2023-02-03T19:29:47.327Z,1.10
2023-02-03T19:32:17.005Z,1.10
2023-02-03T19:34:45.275Z,0.93
2023-02-03T19:37:13.510Z,1.00
2023-02-03T19:39:41.743Z,1.08
2023-02-03T19:42:11.814Z,1.20
2023-02-03T19:44:39.983Z,0.88
2023-02-03T19:47:08.238Z,1.45
2023-02-03T19:49:37.838Z,1.58
2023-02-03T19:52:09.073Z,1.77
2023-02-03T19:54:37.514Z,1.85
2023-02-03T19:57:05.890Z,1.95
2023-02-03T19:59:34.058Z,1.85
2023-02-03T20:02:12.667Z,1.70
2023-02-03T20:04:44.244Z,1.55
2023-02-03T20:07:13.406Z,1.30
2023-02-03T20:09:41.619Z,1.65
2023-02-03T20:12:10.028Z,1.50
2023-02-03T20:14:38.605Z,1.20
2023-02-03T20:17:07.648Z,1.38
2023-02-03T20:19:35.902Z,1.25
2023-02-03T20:22:05.761Z,1.10
2023-02-03T20:24:33.999Z,1.40
2023-02-03T20:27:02.655Z,1.30
2023-02-03T20:29:30.841Z,1.40
2023-02-03T20:31:59.108Z,1.52
2023-02-03T20:34:28.519Z,1.30
2023-02-03T20:36:58.533Z,1.40
2023-02-03T20:39:28.932Z,1.60
2023-02-03T20:41:57.126Z,2.08
2023-02-03T20:44:25.403Z,1.70
2023-02-03T20:46:55.786Z,2.00
2023-02-03T20:49:24.036Z,1.77
2023-02-03T20:51:52.214Z,1.80
2023-02-03T20:54:22.401Z,2.17
2023-02-03T20:56:52.029Z,1.90
2023-02-03T20:59:21.124Z,2.35
2023-02-03T21:01:50.650Z,7.32
2023-02-03T21:04:37.672Z,3.22
2023-02-03T21:07:14.753Z,3.03
2023-02-03T21:09:43.076Z,3.70
2023-02-03T21:12:15.481Z,5.20
2023-02-03T21:14:46.170Z,3.10
2023-02-03T21:17:23.296Z,2.58
2023-02-03T21:19:52.007Z,2.75
2023-02-03T21:22:23.890Z,2.83
2023-02-03T21:24:54.412Z,2.80
2023-02-03T21:27:29.745Z,2.83
2023-02-03T21:29:59.364Z,3.65
2023-02-03T21:32:35.109Z,3.10
2023-02-03T21:35:03.302Z,3.45
2023-02-03T21:37:41.390Z,4.38
2023-02-03T21:40:24.238Z,7.65
2023-02-03T21:42:54.378Z,5.00
2023-02-03T21:45:42.101Z,3.95
2023-02-03T21:48:27.319Z,2.42
2023-02-03T21:50:57.668Z,4.15
2023-02-03T21:53:29.296Z,4.35
2023-02-03T21:55:57.508Z,2.95
2023-02-03T21:58:30.802Z,2.17
2023-02-03T22:00:59.820Z,2.30
2023-02-03T22:03:30.750Z,3.05
2023-02-03T22:06:17.263Z,2.33
2023-02-03T22:08:47.245Z,2.30
2023-02-03T22:11:16.776Z,2.75
2023-02-03T22:13:46.847Z,2.08
2023-02-03T22:16:17.255Z,2.50
2023-02-03T22:18:46.410Z,2.55
2023-02-03T22:21:14.861Z,2.35
2023-02-03T22:23:43.746Z,2.50
2023-02-03T22:26:13.459Z,2.60
2023-02-03T22:28:43.482Z,2.55
2023-02-03T22:31:13.935Z,2.17
2023-02-03T22:33:42.855Z,2.38
2023-02-03T22:36:11.819Z,2.47
2023-02-03T22:38:41.326Z,2.22
2023-02-03T22:41:11.881Z,2.70
2023-02-03T22:43:40.621Z,2.47
2023-02-03T22:46:09.459Z,2.58
2023-02-03T22:48:39.150Z,2.75
2023-02-03T22:51:07.696Z,2.65
2023-02-03T22:53:36.028Z,2.67
2023-02-03T22:56:04.306Z,2.50
2023-02-03T22:58:32.562Z,2.80
2023-02-03T23:01:00.771Z,3.35
2023-02-03T23:03:32.157Z,3.30
2023-02-03T23:06:01.861Z,3.85
2023-02-03T23:08:30.068Z,3.28
2023-02-03T23:10:58.778Z,2.90
2023-02-03T23:13:27.475Z,2.80
2023-02-03T23:15:55.751Z,3.33
2023-02-03T23:18:24.007Z,3.10
2023-02-03T23:20:52.210Z,3.38
2023-02-03T23:23:21.752Z,3.10
2023-02-03T23:25:49.947Z,3.88
2023-02-03T23:28:18.189Z,4.47
2023-02-03T23:30:46.469Z,4.32
2023-02-03T23:33:14.699Z,4.13
2023-02-03T23:35:49.333Z,4.70
2023-02-03T23:38:18.480Z,4.57
2023-02-03T23:40:48.702Z,3.80
2023-02-03T23:43:17.046Z,3.67
2023-02-03T23:45:45.244Z,3.75
2023-02-03T23:48:13.607Z,2.95
2023-02-03T23:50:41.851Z,2.88
2023-02-03T23:53:10.124Z,2.97
2023-02-03T23:55:38.339Z,2.47
2023-02-03T23:58:07.975Z,2.20
